createdAt,value
2018-07-04T00:02:31.279Z,43.59
2018-07-04T00:05:17.577Z,44.04
2018-07-04T00:08:03.943Z,43.91
2018-07-04T00:10:51.311Z,43.34
2018-07-04T00:13:37.779Z,43.20
2018-07-04T00:16:24.229Z,42.89
2018-07-04T00:19:10.684Z,42.48
2018-07-04T00:21:56.905Z,42.33
2018-07-04T00:24:43.924Z,43.08
2018-07-04T00:27:31.036Z,43.40
2018-07-04T00:30:17.447Z,43.86
2018-07-04T00:33:03.999Z,44.10
2018-07-04T00:35:51.101Z,44.28
2018-07-04T00:38:37.691Z,43.89
2018-07-04T00:41:23.972Z,44.14
2018-07-04T00:44:10.357Z,43.67
2018-07-04T00:46:56.797Z,42.62
2018-07-04T00:49:44.024Z,42.32
2018-07-04T00:52:31.378Z,42.84
2018-07-04T00:55:17.916Z,43.16
2018-07-04T00:58:04.268Z,43.06
2018-07-04T01:00:50.713Z,43.50
2018-07-04T01:03:37.167Z,43.91
2018-07-04T01:06:23.523Z,44.15
2018-07-04T01:09:09.974Z,43.59
2018-07-04T01:11:56.528Z,43.51
2018-07-04T01:14:43.071Z,44.29
2018-07-04T01:17:29.548Z,44.07
2018-07-04T01:20:16.864Z,43.83
2018-07-04T01:23:03.439Z,43.94
2018-07-04T01:25:50.939Z,43.82
2018-07-04T01:28:42.551Z,44.36
2018-07-04T01:31:29.024Z,44.50
2018-07-04T01:34:15.437Z,44.61
2018-07-04T01:37:02.205Z,44.44
2018-07-04T01:39:48.775Z,45.34
2018-07-04T01:42:35.789Z,44.73
2018-07-04T01:45:22.368Z,44.95
2018-07-04T01:48:10.048Z,45.06
2018-07-04T01:50:56.740Z,45.33
2018-07-04T01:53:43.081Z,45.24
2018-07-04T01:56:29.518Z,45.50
2018-07-04T01:59:16.124Z,46.16
2018-07-04T02:02:02.882Z,47.20
2018-07-04T02:04:51.221Z,47.57
2018-07-04T02:07:37.752Z,47.28
2018-07-04T02:10:24.467Z,48.46
2018-07-04T02:13:10.894Z,48.12
2018-07-04T02:15:58.092Z,45.52
2018-07-04T02:18:44.466Z,46.61
2018-07-04T02:21:31.034Z,46.25
2018-07-04T02:24:17.591Z,45.74
2018-07-04T02:27:04.359Z,44.80
2018-07-04T02:29:50.642Z,46.27
2018-07-04T02:32:37.245Z,47.17
2018-07-04T02:35:24.195Z,47.11
2018-07-04T02:38:14.889Z,45.77
2018-07-04T02:41:01.354Z,45.23
2018-07-04T02:43:48.106Z,46.04
2018-07-04T02:46:40.796Z,45.76
2018-07-04T02:49:28.021Z,46.52
2018-07-04T02:52:14.517Z,46.42
2018-07-04T02:55:01.202Z,46.87
2018-07-04T02:57:48.725Z,48.90
2018-07-04T03:00:35.012Z,48.41
2018-07-04T03:03:21.465Z,47.40
2018-07-04T03:06:07.873Z,46.96
2018-07-04T03:08:54.397Z,46.31
2018-07-04T03:11:41.613Z,46.07
2018-07-04T03:14:29.008Z,46.11
2018-07-04T03:17:15.712Z,46.37
2018-07-04T03:20:02.261Z,47.65
2018-07-04T03:22:49.349Z,49.17
2018-07-04T03:25:35.620Z,49.59
2018-07-04T03:28:22.166Z,49.34
2018-07-04T03:31:08.562Z,48.22
2018-07-04T03:33:55.220Z,48.00
2018-07-04T03:36:44.018Z,48.20
2018-07-04T03:39:30.501Z,48.18
2018-07-04T03:42:17.710Z,47.95
2018-07-04T03:45:04.040Z,48.00
2018-07-04T03:47:50.454Z,47.77
2018-07-04T03:50:37.527Z,48.05
2018-07-04T03:53:24.199Z,47.90
2018-07-04T03:56:10.643Z,47.08
2018-07-04T03:58:57.274Z,46.40
2018-07-04T04:01:43.601Z,48.12
2018-07-04T04:04:30.179Z,48.17
2018-07-04T04:07:17.456Z,48.28
2018-07-04T04:10:04.771Z,48.05
2018-07-04T04:12:51.236Z,48.19
2018-07-04T04:15:37.757Z,48.75
2018-07-04T04:18:24.344Z,49.69
2018-07-04T04:21:10.684Z,49.97
2018-07-04T04:23:58.165Z,48.87
2018-07-04T04:26:44.696Z,48.51
2018-07-04T04:29:31.487Z,47.57
2018-07-04T04:32:17.827Z,48.68
2018-07-04T04:35:04.601Z,49.76
2018-07-04T04:37:51.031Z,49.87
2018-07-04T04:40:38.407Z,50.30
2018-07-04T04:43:24.795Z,49.46
2018-07-04T04:46:11.283Z,48.81
2018-07-04T04:48:57.592Z,49.67
2018-07-04T04:51:44.624Z,50.81
2018-07-04T04:54:32.632Z,49.80
2018-07-04T04:57:21.963Z,49.02
2018-07-04T05:00:08.328Z,49.18
2018-07-04T05:02:55.407Z,48.26
2018-07-04T05:05:41.944Z,46.27
2018-07-04T05:08:28.849Z,46.68
2018-07-04T05:11:15.496Z,44.99
2018-07-04T05:14:02.867Z,45.31
2018-07-04T05:16:49.538Z,48.29
2018-07-04T05:19:36.311Z,47.29
2018-07-04T05:22:22.717Z,45.29
2018-07-04T05:25:09.257Z,44.65
2018-07-04T05:27:55.655Z,44.33
2018-07-04T05:30:41.956Z,45.93
2018-07-04T05:33:28.778Z,47.86
2018-07-04T05:36:15.488Z,48.15
2018-07-04T05:39:01.848Z,47.92
2018-07-04T05:41:49.181Z,48.04
2018-07-04T05:44:35.519Z,47.61
2018-07-04T05:47:22.207Z,46.44
2018-07-04T05:50:08.755Z,45.77
2018-07-04T05:52:55.292Z,45.06
2018-07-04T05:55:41.770Z,45.49
2018-07-04T05:58:28.820Z,45.41
2018-07-04T06:01:15.173Z,44.94
2018-07-04T06:04:01.702Z,44.47
2018-07-04T06:06:48.947Z,43.85
2018-07-04T06:09:35.257Z,43.88
2018-07-04T06:12:21.717Z,43.23
2018-07-04T06:15:08.029Z,44.66
2018-07-04T06:17:54.595Z,44.10
2018-07-04T06:20:42.088Z,44.19
2018-07-04T06:23:28.919Z,45.26
2018-07-04T06:26:15.489Z,45.07
2018-07-04T06:29:02.575Z,44.64
2018-07-04T06:31:49.005Z,45.28
2018-07-04T06:34:36.054Z,45.67
2018-07-04T06:37:22.409Z,44.39
2018-07-04T06:39:56.506Z,43.65
2018-07-04T06:42:24.344Z,42.40
2018-07-04T06:44:52.702Z,40.75
2018-07-04T06:47:21.152Z,38.90
2018-07-04T06:49:49.026Z,38.15
2018-07-04T06:52:16.848Z,36.41
2018-07-04T06:54:45.967Z,36.06
2018-07-04T06:57:13.785Z,35.23
2018-07-04T06:59:41.672Z,35.83
2018-07-04T07:02:14.700Z,35.77
2018-07-04T07:04:56.220Z,34.93
2018-07-04T07:07:42.544Z,34.42
2018-07-04T07:10:29.028Z,34.29
2018-07-04T07:13:15.365Z,34.40
2018-07-04T07:16:03.064Z,33.56
2018-07-04T07:18:49.775Z,33.33
2018-07-04T07:21:36.173Z,32.83
2018-07-04T07:24:23.506Z,32.47
2018-07-04T07:27:10.253Z,31.60
2018-07-04T07:29:56.569Z,31.57
2018-07-04T07:32:43.667Z,30.90
2018-07-04T07:35:30.929Z,30.79
2018-07-04T07:38:17.296Z,30.43
2018-07-04T07:41:03.761Z,30.35
2018-07-04T07:43:51.121Z,31.03
2018-07-04T07:46:37.556Z,30.25
2018-07-04T07:49:24.845Z,30.09
2018-07-04T07:52:12.609Z,30.80
2018-07-04T07:55:00.265Z,30.28
2018-07-04T07:57:47.090Z,30.01
2018-07-04T08:00:33.614Z,30.21
2018-07-04T08:03:20.570Z,30.43
2018-07-04T08:06:07.347Z,29.70
2018-07-04T08:08:53.874Z,29.18
2018-07-04T08:11:40.495Z,29.75
2018-07-04T08:14:27.076Z,29.30
2018-07-04T08:17:13.479Z,28.69
2018-07-04T08:20:00.726Z,28.86
2018-07-04T08:22:48.276Z,28.89
2018-07-04T08:25:34.633Z,28.66
2018-07-04T08:28:21.370Z,29.23
2018-07-04T08:31:07.796Z,28.13
2018-07-04T08:33:54.736Z,29.02
2018-07-04T08:36:41.612Z,29.18
2018-07-04T08:39:27.941Z,29.08
2018-07-04T08:42:14.401Z,28.18
2018-07-04T08:45:01.336Z,28.27
2018-07-04T08:47:48.122Z,28.20
2018-07-04T08:50:34.523Z,28.23
2018-07-04T08:53:20.976Z,28.38
2018-07-04T08:56:08.622Z,28.09
2018-07-04T08:58:55.043Z,28.53
2018-07-04T09:01:42.161Z,28.48
2018-07-04T09:04:28.753Z,28.59
2018-07-04T09:07:15.937Z,27.92
2018-07-04T09:10:02.733Z,27.83
2018-07-04T09:12:49.365Z,27.88
2018-07-04T09:15:35.909Z,28.12
2018-07-04T09:18:23.255Z,27.62
2018-07-04T09:21:09.654Z,27.88
2018-07-04T09:23:57.475Z,27.38
2018-07-04T09:26:43.924Z,27.02
2018-07-04T09:29:30.961Z,26.66
2018-07-04T09:32:17.455Z,26.12
2018-07-04T09:35:03.893Z,26.11
2018-07-04T09:37:50.310Z,26.42
2018-07-04T09:40:36.920Z,25.90
2018-07-04T09:43:24.103Z,26.22
2018-07-04T09:46:10.592Z,25.30
2018-07-04T09:48:57.363Z,25.21
2018-07-04T09:51:43.884Z,24.63
2018-07-04T09:54:30.312Z,25.18
2018-07-04T09:57:17.277Z,24.67
2018-07-04T10:00:05.236Z,23.60
2018-07-04T10:02:51.686Z,24.76
2018-07-04T10:05:38.591Z,23.68
2018-07-04T10:08:25.151Z,25.32
2018-07-04T10:11:11.645Z,24.65
2018-07-04T10:13:58.463Z,25.13
2018-07-04T10:16:44.944Z,24.38
2018-07-04T10:19:31.812Z,22.67
2018-07-04T10:22:18.589Z,23.14
2018-07-04T10:25:04.928Z,23.07
2018-07-04T10:27:52.281Z,23.59
2018-07-04T10:30:38.667Z,24.34
2018-07-04T10:33:25.917Z,24.04
2018-07-04T10:36:13.051Z,23.40
2018-07-04T10:39:00.716Z,23.82
2018-07-04T10:41:48.330Z,23.98
2018-07-04T10:44:36.034Z,23.94
2018-07-04T10:47:22.609Z,23.22
2018-07-04T10:50:09.416Z,23.41
2018-07-04T10:52:55.916Z,23.74
2018-07-04T10:55:42.209Z,23.37
2018-07-04T10:58:29.044Z,22.19
2018-07-04T11:01:16.999Z,21.05
2018-07-04T11:04:03.572Z,21.45
2018-07-04T11:06:50.833Z,21.08
2018-07-04T11:09:37.453Z,21.70
2018-07-04T11:12:25.881Z,20.45
2018-07-04T11:15:12.218Z,21.42
2018-07-04T11:17:58.730Z,20.64
2018-07-04T11:20:45.143Z,22.43
2018-07-04T11:23:32.491Z,21.44
2018-07-04T11:26:18.802Z,22.19
2018-07-04T11:29:05.153Z,22.14
2018-07-04T11:31:52.122Z,20.36
2018-07-04T11:34:39.852Z,20.82
2018-07-04T11:37:26.243Z,20.88
2018-07-04T11:40:12.617Z,21.28
2018-07-04T11:42:59.371Z,19.92
2018-07-04T11:45:46.515Z,19.50
2018-07-04T11:48:19.074Z,19.82
2018-07-04T11:50:47.245Z,19.32
2018-07-04T11:53:15.098Z,19.09
2018-07-04T11:55:43.786Z,19.39
2018-07-04T11:58:12.993Z,19.10
2018-07-04T12:00:40.884Z,19.41
2018-07-04T12:03:22.019Z,18.35
2018-07-04T12:06:03.472Z,19.36
2018-07-04T12:08:37.685Z,21.19
2018-07-04T12:11:05.693Z,21.33
2018-07-04T12:13:33.807Z,19.85
2018-07-04T12:16:01.912Z,18.31
2018-07-04T12:18:29.782Z,20.58
2018-07-04T12:20:57.961Z,19.38
2018-07-04T12:23:25.790Z,19.92
2018-07-04T12:25:53.881Z,20.55
2018-07-04T12:28:21.945Z,20.05
2018-07-04T12:30:51.056Z,19.05
2018-07-04T12:33:18.901Z,18.58
2018-07-04T12:35:46.763Z,18.38
2018-07-04T12:38:14.700Z,18.31
2018-07-04T12:40:43.885Z,18.96
2018-07-04T12:43:12.381Z,19.07
2018-07-04T12:45:40.219Z,19.29
2018-07-04T12:48:08.178Z,19.70
2018-07-04T12:50:36.010Z,20.18
2018-07-04T12:53:06.376Z,19.92
2018-07-04T12:55:47.252Z,19.87
2018-07-04T12:58:34.987Z,19.17
2018-07-04T13:01:21.600Z,20.08
2018-07-04T13:04:08.407Z,19.65
2018-07-04T13:06:54.745Z,20.37
2018-07-04T13:09:41.515Z,19.14
2018-07-04T13:12:27.834Z,18.56
2018-07-04T13:15:14.787Z,18.02
2018-07-04T13:18:01.382Z,18.55
2018-07-04T13:20:47.727Z,17.61
2018-07-04T13:23:34.288Z,17.86
2018-07-04T13:26:21.508Z,18.89
2018-07-04T13:29:07.882Z,21.35
2018-07-04T13:31:54.255Z,20.53
2018-07-04T13:34:40.758Z,21.81
2018-07-04T13:37:29.084Z,22.59
2018-07-04T13:40:15.577Z,20.93
2018-07-04T13:43:02.011Z,22.33
2018-07-04T13:45:48.417Z,24.01
2018-07-04T13:48:34.700Z,23.68
2018-07-04T13:51:21.374Z,23.44
2018-07-04T13:54:08.193Z,24.18
2018-07-04T13:56:55.496Z,23.17
2018-07-04T13:59:43.304Z,23.90
2018-07-04T14:02:34.964Z,23.41
2018-07-04T14:05:21.952Z,23.79
2018-07-04T14:08:08.706Z,24.73
2018-07-04T14:10:56.261Z,25.98
2018-07-04T14:13:43.653Z,26.55
2018-07-04T14:16:30.630Z,26.52
2018-07-04T14:19:19.902Z,28.46
2018-07-04T14:22:09.421Z,30.34
2018-07-04T14:24:57.909Z,30.15
2018-07-04T14:27:45.128Z,30.07
2018-07-04T14:30:33.175Z,30.49
2018-07-04T14:33:20.816Z,31.89
2018-07-04T14:36:09.779Z,32.74
2018-07-04T14:38:57.612Z,36.12
2018-07-04T14:41:45.685Z,36.32
2018-07-04T14:44:33.970Z,37.40
2018-07-04T14:47:21.882Z,37.35
2018-07-04T14:50:08.815Z,38.34
2018-07-04T14:52:56.195Z,39.74
2018-07-04T14:55:43.000Z,41.85
2018-07-04T14:58:29.732Z,40.66
2018-07-04T15:01:16.936Z,39.57
2018-07-04T15:04:03.620Z,37.88
2018-07-04T15:06:51.044Z,32.56
2018-07-04T15:09:40.454Z,35.57
2018-07-04T15:12:26.896Z,32.42
2018-07-04T15:15:13.387Z,28.77
2018-07-04T15:18:01.328Z,29.96
2018-07-04T15:20:49.388Z,33.41
2018-07-04T15:23:36.404Z,38.15
2018-07-04T15:26:24.918Z,38.09
2018-07-04T15:29:12.891Z,37.63
2018-07-04T15:32:01.672Z,33.45
2018-07-04T15:34:52.737Z,34.25
2018-07-04T15:37:40.682Z,33.01
2018-07-04T15:40:28.914Z,33.09
2018-07-04T15:43:15.312Z,33.57
2018-07-04T15:46:02.668Z,34.92
2018-07-04T15:48:49.804Z,35.14
2018-07-04T15:51:37.060Z,35.98
2018-07-04T15:54:23.934Z,36.21
2018-07-04T15:57:11.299Z,37.14
2018-07-04T15:59:59.835Z,39.56
2018-07-04T16:02:48.247Z,39.17
2018-07-04T16:05:35.699Z,39.63
2018-07-04T16:08:27.058Z,39.39
2018-07-04T16:11:15.276Z,40.02
2018-07-04T16:14:04.245Z,39.40
2018-07-04T16:16:52.361Z,39.81
2018-07-04T16:19:44.851Z,39.05
2018-07-04T16:22:35.489Z,39.68
2018-07-04T16:25:23.345Z,38.91
2018-07-04T16:28:10.982Z,39.55
2018-07-04T16:31:02.802Z,38.93
2018-07-04T16:33:50.109Z,39.72
2018-07-04T16:36:38.388Z,40.12
2018-07-04T16:39:29.754Z,39.62
2018-07-04T16:42:17.932Z,39.38
2018-07-04T16:45:09.697Z,39.28
2018-07-04T16:47:59.437Z,39.73
2018-07-04T16:50:48.593Z,40.31
2018-07-04T16:53:36.398Z,40.88
2018-07-04T16:56:26.851Z,39.69
2018-07-04T16:59:13.893Z,40.36
2018-07-04T17:02:01.687Z,41.15
2018-07-04T17:04:48.826Z,41.10
2018-07-04T17:07:35.671Z,40.73
2018-07-04T17:10:23.391Z,41.13
2018-07-04T17:13:11.950Z,41.11
2018-07-04T17:15:59.865Z,41.80
2018-07-04T17:18:50.249Z,41.49
2018-07-04T17:21:39.611Z,41.50
2018-07-04T17:24:31.530Z,41.32
2018-07-04T17:27:19.687Z,41.25
2018-07-04T17:30:07.870Z,41.51
2018-07-04T17:32:56.597Z,42.34
2018-07-04T17:35:44.313Z,42.71
2018-07-04T17:38:30.795Z,42.11
2018-07-04T17:41:17.579Z,42.14
2018-07-04T17:44:04.734Z,42.40
2018-07-04T17:46:51.904Z,41.54
2018-07-04T17:49:40.723Z,41.37
2018-07-04T17:52:28.729Z,40.91
2018-07-04T17:55:16.047Z,41.48
2018-07-04T17:58:04.708Z,41.46
2018-07-04T18:00:53.254Z,41.71
2018-07-04T18:03:40.792Z,42.61
2018-07-04T18:06:28.021Z,42.76
2018-07-04T18:09:16.841Z,42.25
2018-07-04T18:12:04.601Z,41.88
2018-07-04T18:14:54.595Z,42.04
2018-07-04T18:17:45.422Z,42.04
2018-07-04T18:20:38.604Z,42.39
2018-07-04T18:23:28.343Z,43.09
2018-07-04T18:26:18.337Z,43.57
2018-07-04T18:29:07.341Z,43.94
2018-07-04T18:31:54.593Z,44.72
2018-07-04T18:34:41.202Z,45.47
2018-07-04T18:37:28.688Z,45.79
2018-07-04T18:40:14.960Z,45.86
2018-07-04T18:43:03.412Z,46.77
2018-07-04T18:45:51.346Z,47.59
2018-07-04T18:48:39.538Z,48.24
2018-07-04T18:51:27.838Z,48.80
2018-07-04T18:54:14.876Z,49.55
2018-07-04T18:57:03.547Z,49.48
2018-07-04T18:59:52.390Z,49.23
2018-07-04T19:02:40.328Z,49.19
2018-07-04T19:05:28.496Z,49.66
2018-07-04T19:08:18.798Z,49.71
2018-07-04T19:11:05.379Z,50.09
2018-07-04T19:13:52.784Z,50.70
2018-07-04T19:16:39.593Z,50.42
2018-07-04T19:19:27.570Z,51.38
2018-07-04T19:22:14.392Z,51.50
2018-07-04T19:25:02.688Z,51.64
2018-07-04T19:27:49.292Z,51.09
2018-07-04T19:30:37.385Z,52.30
2018-07-04T19:33:26.950Z,52.29
2018-07-04T19:36:15.835Z,53.13
2018-07-04T19:39:07.122Z,53.56
2018-07-04T19:41:55.767Z,54.48
2018-07-04T19:44:46.348Z,54.41
2018-07-04T19:47:40.215Z,53.83
2018-07-04T19:50:27.549Z,52.55
2018-07-04T19:53:14.662Z,53.42
2018-07-04T19:56:04.544Z,54.69
2018-07-04T19:58:55.433Z,55.16
2018-07-04T20:01:47.055Z,55.56
2018-07-04T20:04:34.802Z,56.07
2018-07-04T20:07:27.745Z,55.25
2018-07-04T20:10:15.921Z,54.60
2018-07-04T20:13:03.624Z,53.59
2018-07-04T20:15:51.461Z,53.02
2018-07-04T20:18:41.454Z,52.91
2018-07-04T20:21:29.143Z,53.46
2018-07-04T20:24:16.650Z,53.10
2018-07-04T20:27:05.760Z,53.79
2018-07-04T20:29:55.707Z,54.31
2018-07-04T20:32:43.279Z,53.73
2018-07-04T20:35:30.924Z,54.13
2018-07-04T20:38:19.694Z,54.10
2018-07-04T20:41:08.656Z,56.12
2018-07-04T20:43:56.604Z,55.96
2018-07-04T20:46:43.272Z,55.62
2018-07-04T20:49:31.752Z,55.16
2018-07-04T20:52:21.525Z,54.98
2018-07-04T20:55:08.244Z,55.10
2018-07-04T20:57:57.232Z,55.59
2018-07-04T21:00:44.755Z,55.74
2018-07-04T21:03:33.027Z,56.02
2018-07-04T21:06:20.219Z,56.23
2018-07-04T21:09:09.410Z,56.29
2018-07-04T21:11:55.780Z,55.72
2018-07-04T21:14:44.608Z,55.96
2018-07-04T21:17:31.793Z,56.03
2018-07-04T21:20:24.019Z,56.85
2018-07-04T21:23:16.540Z,57.90
2018-07-04T21:26:07.033Z,58.64
2018-07-04T21:28:57.881Z,59.29
2018-07-04T21:31:51.843Z,58.57
2018-07-04T21:34:40.471Z,58.34
2018-07-04T21:37:31.392Z,58.43
2018-07-04T21:40:30.487Z,59.08
2018-07-04T21:43:19.921Z,59.16
2018-07-04T21:46:08.684Z,59.35
2018-07-04T21:48:55.945Z,59.58
2018-07-04T21:51:44.208Z,59.69
2018-07-04T21:54:31.516Z,60.38
2018-07-04T21:57:18.429Z,60.65
2018-07-04T22:00:06.164Z,59.98
2018-07-04T22:02:54.353Z,60.76
2018-07-04T22:05:41.593Z,60.55
2018-07-04T22:08:31.578Z,60.49
2018-07-04T22:11:18.265Z,60.33
2018-07-04T22:14:07.530Z,60.80
2018-07-04T22:16:55.285Z,60.45
2018-07-04T22:19:42.622Z,60.83
2018-07-04T22:22:31.056Z,60.67
2018-07-04T22:25:23.125Z,60.59
2018-07-04T22:28:09.633Z,60.13
2018-07-04T22:30:56.329Z,61.39
2018-07-04T22:33:42.683Z,61.99
2018-07-04T22:36:31.258Z,61.64
2018-07-04T22:39:19.198Z,61.42
2018-07-04T22:42:06.990Z,61.76
2018-07-04T22:44:55.618Z,61.21
2018-07-04T22:47:43.760Z,61.58
2018-07-04T22:50:31.084Z,61.81
2018-07-04T22:53:19.892Z,62.91
2018-07-04T22:56:08.162Z,62.95
2018-07-04T22:58:58.113Z,63.80
2018-07-04T23:01:45.695Z,64.14
2018-07-04T23:04:33.620Z,67.36
2018-07-04T23:07:24.227Z,67.03
2018-07-04T23:10:13.090Z,66.32
2018-07-04T23:13:01.725Z,65.41
2018-07-04T23:15:56.074Z,64.94
2018-07-04T23:18:42.380Z,65.26
2018-07-04T23:21:33.072Z,64.96
2018-07-04T23:24:20.017Z,64.07
2018-07-04T23:27:12.688Z,65.71
2018-07-04T23:29:59.824Z,65.80
2018-07-04T23:32:46.696Z,65.50
2018-07-04T23:35:35.906Z,65.34
2018-07-04T23:38:23.050Z,66.17
2018-07-04T23:41:11.252Z,67.42
2018-07-04T23:43:58.837Z,66.66
2018-07-04T23:46:46.297Z,67.23
2018-07-04T23:49:34.964Z,66.24
2018-07-04T23:52:23.312Z,67.46
2018-07-04T23:55:10.770Z,67.86
2018-07-04T23:57:59.386Z,67.71
